Terminal Aerodrome Forecast
Issued by NWS Memphis, TN

Home | Current Version | Previous Version | Text Only | Print | Product List | Glossary On
Versions: 1 2 3 4 5 6 7 8 9 10 11 12 13 14 15 16 17 18 19
000
FTUS44 KMEG 242327
TAFMKL
TAF
KMKL 242327Z 2500/2524 35009KT P6SM FEW045 BKN250
     FM250100 35003KT P6SM FEW120 SCT250
     FM250700 00000KT P6SM BKN150
     FM251500 02007KT P6SM SCT120=

USA.gov is the U.S. government's official web portal to all federal, state and local government web resources and services.